sensor_id;sensor_type;location;lat;lon;timestamp;temperature;humidity
18721;DHT22;9489;50.948;3.114;2022-09-27T00:00:23;11.90;99.90
18721;DHT22;9489;50.948;3.114;2022-09-27T00:02:49;11.80;99.90
18721;DHT22;9489;50.948;3.114;2022-09-27T00:05:15;11.70;99.90
18721;DHT22;9489;50.948;3.114;2022-09-27T00:07:40;11.60;99.90
18721;DHT22;9489;50.948;3.114;2022-09-27T00:10:07;11.60;99.90
18721;DHT22;9489;50.948;3.114;2022-09-27T00:12:33;11.60;99.90
18721;DHT22;9489;50.948;3.114;2022-09-27T00:14:59;11.60;99.90
18721;DHT22;9489;50.948;3.114;2022-09-27T00:17:27;11.60;99.90
18721;DHT22;9489;50.948;3.114;2022-09-27T00:19:53;11.60;99.90
18721;DHT22;9489;50.948;3.114;2022-09-27T00:22:21;11.60;99.90
18721;DHT22;9489;50.948;3.114;2022-09-27T00:24:47;11.60;99.90
18721;DHT22;9489;50.948;3.114;2022-09-27T00:27:12;11.60;99.90
18721;DHT22;9489;50.948;3.114;2022-09-27T00:29:38;11.50;99.90
18721;DHT22;9489;50.948;3.114;2022-09-27T00:32:04;11.50;99.90
18721;DHT22;9489;50.948;3.114;2022-09-27T00:34:29;11.50;99.90
18721;DHT22;9489;50.948;3.114;2022-09-27T00:36:55;11.50;99.90
18721;DHT22;9489;50.948;3.114;2022-09-27T00:39:21;11.40;99.90
18721;DHT22;9489;50.948;3.114;2022-09-27T00:41:47;11.30;99.90
18721;DHT22;9489;50.948;3.114;2022-09-27T00:49:32;11.20;99.90
18721;DHT22;9489;50.948;3.114;2022-09-27T00:52:12;11.20;99.90
18721;DHT22;9489;50.948;3.114;2022-09-27T00:54:43;11.20;99.90
18721;DHT22;9489;50.948;3.114;2022-09-27T00:57:10;11.20;99.90
18721;DHT22;9489;50.948;3.114;2022-09-27T00:59:40;11.20;99.90
18721;DHT22;9489;50.948;3.114;2022-09-27T01:02:08;11.20;99.90
18721;DHT22;9489;50.948;3.114;2022-09-27T01:04:36;11.20;99.90
18721;DHT22;9489;50.948;3.114;2022-09-27T01:07:02;11.20;99.90
18721;DHT22;9489;50.948;3.114;2022-09-27T01:09:29;11.30;99.90
18721;DHT22;9489;50.948;3.114;2022-09-27T01:42:20;11.10;99.90
18721;DHT22;9489;50.948;3.114;2022-09-27T01:44:53;11.00;99.90
18721;DHT22;9489;50.948;3.114;2022-09-27T01:47:25;11.00;99.90
18721;DHT22;9489;50.948;3.114;2022-09-27T01:50:03;10.90;99.90
18721;DHT22;9489;50.948;3.114;2022-09-27T01:52:52;10.90;99.90
18721;DHT22;9489;50.948;3.114;2022-09-27T01:55:21;10.90;99.90
18721;DHT22;9489;50.948;3.114;2022-09-27T01:57:57;10.80;99.90
18721;DHT22;9489;50.948;3.114;2022-09-27T02:00:24;10.80;99.90
18721;DHT22;9489;50.948;3.114;2022-09-27T02:02:54;10.80;99.90
18721;DHT22;9489;50.948;3.114;2022-09-27T02:05:28;10.80;99.90
18721;DHT22;9489;50.948;3.114;2022-09-27T02:08:02;10.70;99.90
18721;DHT22;9489;50.948;3.114;2022-09-27T02:10:35;10.70;99.90
18721;DHT22;9489;50.948;3.114;2022-09-27T02:13:28;10.70;99.90
18721;DHT22;9489;50.948;3.114;2022-09-27T02:18:40;10.60;99.90
18721;DHT22;9489;50.948;3.114;2022-09-27T02:21:10;10.50;99.90
18721;DHT22;9489;50.948;3.114;2022-09-27T02:23:45;10.50;99.90
18721;DHT22;9489;50.948;3.114;2022-09-27T02:26:26;10.50;99.90
18721;DHT22;9489;50.948;3.114;2022-09-27T02:29:12;10.40;99.90
18721;DHT22;9489;50.948;3.114;2022-09-27T02:31:39;10.40;99.90
18721;DHT22;9489;50.948;3.114;2022-09-27T02:34:15;10.40;99.90
18721;DHT22;9489;50.948;3.114;2022-09-27T02:36:43;10.40;99.90
18721;DHT22;9489;50.948;3.114;2022-09-27T02:39:09;10.30;99.90
18721;DHT22;9489;50.948;3.114;2022-09-27T02:41:35;10.30;99.90
18721;DHT22;9489;50.948;3.114;2022-09-27T02:44:06;10.30;99.90
18721;DHT22;9489;50.948;3.114;2022-09-27T02:54:59;10.30;99.90
18721;DHT22;9489;50.948;3.114;2022-09-27T03:00:06;10.30;99.90
18721;DHT22;9489;50.948;3.114;2022-09-27T03:05:25;10.20;99.90
18721;DHT22;9489;50.948;3.114;2022-09-27T03:07:52;10.20;99.90
18721;DHT22;9489;50.948;3.114;2022-09-27T03:10:25;10.20;99.90
18721;DHT22;9489;50.948;3.114;2022-09-27T03:12:51;10.20;99.90
18721;DHT22;9489;50.948;3.114;2022-09-27T03:15:17;10.20;99.90
18721;DHT22;9489;50.948;3.114;2022-09-27T03:17:43;10.30;99.90
18721;DHT22;9489;50.948;3.114;2022-09-27T03:20:09;10.20;99.90
18721;DHT22;9489;50.948;3.114;2022-09-27T03:22:35;10.20;99.90
18721;DHT22;9489;50.948;3.114;2022-09-27T03:25:00;10.20;99.90
18721;DHT22;9489;50.948;3.114;2022-09-27T03:27:26;10.20;99.90
18721;DHT22;9489;50.948;3.114;2022-09-27T03:29:52;10.20;99.90
18721;DHT22;9489;50.948;3.114;2022-09-27T03:32:17;10.20;99.90
18721;DHT22;9489;50.948;3.114;2022-09-27T03:34:43;10.20;99.90
18721;DHT22;9489;50.948;3.114;2022-09-27T03:37:09;10.30;99.90
18721;DHT22;9489;50.948;3.114;2022-09-27T03:39:35;10.30;99.90
18721;DHT22;9489;50.948;3.114;2022-09-27T03:42:00;10.30;99.90
18721;DHT22;9489;50.948;3.114;2022-09-27T03:44:26;10.30;99.90
18721;DHT22;9489;50.948;3.114;2022-09-27T03:46:52;10.40;99.90
18721;DHT22;9489;50.948;3.114;2022-09-27T03:49:17;10.40;99.90
18721;DHT22;9489;50.948;3.114;2022-09-27T03:51:44;10.40;99.90
18721;DHT22;9489;50.948;3.114;2022-09-27T03:54:09;10.40;99.90
18721;DHT22;9489;50.948;3.114;2022-09-27T03:56:35;10.40;99.90
18721;DHT22;9489;50.948;3.114;2022-09-27T03:59:01;10.40;99.90
18721;DHT22;9489;50.948;3.114;2022-09-27T04:01:26;10.40;99.90
18721;DHT22;9489;50.948;3.114;2022-09-27T04:03:53;10.40;99.90
18721;DHT22;9489;50.948;3.114;2022-09-27T04:06:19;10.50;99.90
18721;DHT22;9489;50.948;3.114;2022-09-27T04:08:46;10.50;99.90
18721;DHT22;9489;50.948;3.114;2022-09-27T04:11:12;10.50;99.90
18721;DHT22;9489;50.948;3.114;2022-09-27T04:13:40;10.40;99.90
18721;DHT22;9489;50.948;3.114;2022-09-27T04:16:05;10.40;99.90
18721;DHT22;9489;50.948;3.114;2022-09-27T04:18:32;10.50;99.90
18721;DHT22;9489;50.948;3.114;2022-09-27T04:20:58;10.50;99.90
18721;DHT22;9489;50.948;3.114;2022-09-27T04:23:23;10.50;99.90
18721;DHT22;9489;50.948;3.114;2022-09-27T04:25:49;10.40;99.90
18721;DHT22;9489;50.948;3.114;2022-09-27T04:28:16;10.40;99.90
18721;DHT22;9489;50.948;3.114;2022-09-27T04:30:42;10.50;99.90
18721;DHT22;9489;50.948;3.114;2022-09-27T04:33:07;10.50;99.90
18721;DHT22;9489;50.948;3.114;2022-09-27T04:35:33;10.50;99.90
18721;DHT22;9489;50.948;3.114;2022-09-27T04:38:17;10.50;99.90
18721;DHT22;9489;50.948;3.114;2022-09-27T04:40:46;10.50;99.90
18721;DHT22;9489;50.948;3.114;2022-09-27T04:43:13;10.50;99.90
18721;DHT22;9489;50.948;3.114;2022-09-27T04:45:39;10.50;99.90
18721;DHT22;9489;50.948;3.114;2022-09-27T04:48:05;10.50;99.90
18721;DHT22;9489;50.948;3.114;2022-09-27T04:50:30;10.50;99.90
18721;DHT22;9489;50.948;3.114;2022-09-27T04:52:57;10.50;99.90
18721;DHT22;9489;50.948;3.114;2022-09-27T04:55:22;10.40;99.90
18721;DHT22;9489;50.948;3.114;2022-09-27T04:57:48;10.40;99.90
18721;DHT22;9489;50.948;3.114;2022-09-27T05:00:14;10.40;99.90
18721;DHT22;9489;50.948;3.114;2022-09-27T05:02:45;10.40;99.90
18721;DHT22;9489;50.948;3.114;2022-09-27T05:05:13;10.40;99.90
18721;DHT22;9489;50.948;3.114;2022-09-27T05:07:39;10.40;99.90
18721;DHT22;9489;50.948;3.114;2022-09-27T05:10:06;10.40;99.90
18721;DHT22;9489;50.948;3.114;2022-09-27T05:12:32;10.40;99.90
18721;DHT22;9489;50.948;3.114;2022-09-27T05:14:57;10.40;99.90
18721;DHT22;9489;50.948;3.114;2022-09-27T05:17:23;10.40;99.90
18721;DHT22;9489;50.948;3.114;2022-09-27T05:19:49;10.40;99.90
18721;DHT22;9489;50.948;3.114;2022-09-27T05:22:15;10.30;99.90
18721;DHT22;9489;50.948;3.114;2022-09-27T05:24:41;10.20;99.90
18721;DHT22;9489;50.948;3.114;2022-09-27T05:27:09;10.20;99.90
18721;DHT22;9489;50.948;3.114;2022-09-27T05:29:36;10.20;99.90
18721;DHT22;9489;50.948;3.114;2022-09-27T05:32:02;10.10;99.90
18721;DHT22;9489;50.948;3.114;2022-09-27T05:34:28;10.10;99.90
18721;DHT22;9489;50.948;3.114;2022-09-27T05:36:57;10.10;99.90
18721;DHT22;9489;50.948;3.114;2022-09-27T05:39:23;10.10;99.90
18721;DHT22;9489;50.948;3.114;2022-09-27T05:41:48;10.00;99.90
18721;DHT22;9489;50.948;3.114;2022-09-27T05:44:15;10.00;99.90
18721;DHT22;9489;50.948;3.114;2022-09-27T05:46:41;10.00;99.90
18721;DHT22;9489;50.948;3.114;2022-09-27T05:49:06;10.00;99.90
18721;DHT22;9489;50.948;3.114;2022-09-27T05:51:32;9.90;99.90
18721;DHT22;9489;50.948;3.114;2022-09-27T05:53:58;9.90;99.90
18721;DHT22;9489;50.948;3.114;2022-09-27T05:56:24;9.90;99.90
18721;DHT22;9489;50.948;3.114;2022-09-27T05:58:50;9.80;99.90
18721;DHT22;9489;50.948;3.114;2022-09-27T06:01:16;9.80;99.90
18721;DHT22;9489;50.948;3.114;2022-09-27T06:03:42;9.80;99.90
18721;DHT22;9489;50.948;3.114;2022-09-27T06:06:08;9.80;99.90
18721;DHT22;9489;50.948;3.114;2022-09-27T06:08:36;9.80;99.90
18721;DHT22;9489;50.948;3.114;2022-09-27T06:11:08;9.80;99.90
18721;DHT22;9489;50.948;3.114;2022-09-27T06:13:35;9.80;99.90
18721;DHT22;9489;50.948;3.114;2022-09-27T06:16:02;9.80;99.90
18721;DHT22;9489;50.948;3.114;2022-09-27T06:18:28;9.90;99.90
18721;DHT22;9489;50.948;3.114;2022-09-27T06:20:53;9.90;99.90
18721;DHT22;9489;50.948;3.114;2022-09-27T06:23:21;9.90;99.90
18721;DHT22;9489;50.948;3.114;2022-09-27T06:25:48;9.80;99.90
18721;DHT22;9489;50.948;3.114;2022-09-27T06:28:14;9.90;99.90
18721;DHT22;9489;50.948;3.114;2022-09-27T06:30:43;9.90;99.90
18721;DHT22;9489;50.948;3.114;2022-09-27T06:33:12;10.00;99.90
18721;DHT22;9489;50.948;3.114;2022-09-27T06:35:38;10.00;99.90
18721;DHT22;9489;50.948;3.114;2022-09-27T06:38:05;10.00;99.90
18721;DHT22;9489;50.948;3.114;2022-09-27T06:40:33;10.00;99.90
18721;DHT22;9489;50.948;3.114;2022-09-27T06:43:06;10.00;99.90
18721;DHT22;9489;50.948;3.114;2022-09-27T06:45:34;10.00;99.90
18721;DHT22;9489;50.948;3.114;2022-09-27T06:48:04;10.00;99.90
18721;DHT22;9489;50.948;3.114;2022-09-27T06:50:33;10.00;99.90
18721;DHT22;9489;50.948;3.114;2022-09-27T06:52:59;10.00;99.90
18721;DHT22;9489;50.948;3.114;2022-09-27T06:55:25;10.10;99.90
18721;DHT22;9489;50.948;3.114;2022-09-27T06:57:55;10.10;99.90
18721;DHT22;9489;50.948;3.114;2022-09-27T07:00:39;10.10;99.90
18721;DHT22;9489;50.948;3.114;2022-09-27T07:03:11;10.20;99.90
18721;DHT22;9489;50.948;3.114;2022-09-27T07:05:38;10.20;99.90
18721;DHT22;9489;50.948;3.114;2022-09-27T07:08:04;10.20;99.90
18721;DHT22;9489;50.948;3.114;2022-09-27T07:10:32;10.20;99.90
18721;DHT22;9489;50.948;3.114;2022-09-27T07:13:06;10.20;99.90
18721;DHT22;9489;50.948;3.114;2022-09-27T07:15:33;10.20;99.90
18721;DHT22;9489;50.948;3.114;2022-09-27T07:18:02;10.30;99.90
18721;DHT22;9489;50.948;3.114;2022-09-27T07:20:28;10.30;99.90
18721;DHT22;9489;50.948;3.114;2022-09-27T07:22:54;10.30;99.90
18721;DHT22;9489;50.948;3.114;2022-09-27T07:25:21;10.40;99.90
18721;DHT22;9489;50.948;3.114;2022-09-27T07:27:46;10.30;99.90
18721;DHT22;9489;50.948;3.114;2022-09-27T07:30:13;10.40;99.90
18721;DHT22;9489;50.948;3.114;2022-09-27T07:32:39;10.30;99.90
18721;DHT22;9489;50.948;3.114;2022-09-27T07:35:06;10.40;99.90
18721;DHT22;9489;50.948;3.114;2022-09-27T07:37:36;10.50;99.90
18721;DHT22;9489;50.948;3.114;2022-09-27T07:40:07;10.50;99.90
18721;DHT22;9489;50.948;3.114;2022-09-27T07:42:34;10.50;99.90
18721;DHT22;9489;50.948;3.114;2022-09-27T07:45:04;10.60;99.90
18721;DHT22;9489;50.948;3.114;2022-09-27T07:47:30;10.50;99.90
18721;DHT22;9489;50.948;3.114;2022-09-27T07:49:56;10.70;99.90
18721;DHT22;9489;50.948;3.114;2022-09-27T07:52:21;10.70;99.90
18721;DHT22;9489;50.948;3.114;2022-09-27T07:54:47;10.80;99.90
18721;DHT22;9489;50.948;3.114;2022-09-27T07:57:14;10.80;99.90
18721;DHT22;9489;50.948;3.114;2022-09-27T07:59:40;10.90;99.90
18721;DHT22;9489;50.948;3.114;2022-09-27T08:02:12;10.90;99.90
18721;DHT22;9489;50.948;3.114;2022-09-27T08:04:38;11.00;99.90
18721;DHT22;9489;50.948;3.114;2022-09-27T08:07:04;11.10;99.90
18721;DHT22;9489;50.948;3.114;2022-09-27T08:09:29;11.30;99.90
18721;DHT22;9489;50.948;3.114;2022-09-27T08:11:56;11.40;99.90
18721;DHT22;9489;50.948;3.114;2022-09-27T08:14:22;11.60;99.90
18721;DHT22;9489;50.948;3.114;2022-09-27T08:16:48;11.90;99.90
18721;DHT22;9489;50.948;3.114;2022-09-27T08:19:15;12.20;99.90
18721;DHT22;9489;50.948;3.114;2022-09-27T08:21:41;12.50;99.90
18721;DHT22;9489;50.948;3.114;2022-09-27T08:24:07;13.30;99.90
18721;DHT22;9489;50.948;3.114;2022-09-27T08:26:33;14.60;99.90
18721;DHT22;9489;50.948;3.114;2022-09-27T08:28:58;15.90;99.90
18721;DHT22;9489;50.948;3.114;2022-09-27T08:31:24;16.20;99.90
18721;DHT22;9489;50.948;3.114;2022-09-27T08:33:51;14.90;99.90
18721;DHT22;9489;50.948;3.114;2022-09-27T08:36:18;14.00;99.90
18721;DHT22;9489;50.948;3.114;2022-09-27T08:38:50;13.30;99.90
18721;DHT22;9489;50.948;3.114;2022-09-27T08:41:31;12.90;99.90
18721;DHT22;9489;50.948;3.114;2022-09-27T08:47:14;12.20;99.90
18721;DHT22;9489;50.948;3.114;2022-09-27T08:52:41;11.70;99.90
18721;DHT22;9489;50.948;3.114;2022-09-27T08:57:51;11.50;99.90
18721;DHT22;9489;50.948;3.114;2022-09-27T09:00:18;11.50;99.90
18721;DHT22;9489;50.948;3.114;2022-09-27T09:02:43;11.70;99.90
18721;DHT22;9489;50.948;3.114;2022-09-27T09:05:29;11.80;99.90
18721;DHT22;9489;50.948;3.114;2022-09-27T09:08:10;12.00;99.90
18721;DHT22;9489;50.948;3.114;2022-09-27T09:10:54;12.30;99.90
18721;DHT22;9489;50.948;3.114;2022-09-27T09:22:41;16.60;99.90
18721;DHT22;9489;50.948;3.114;2022-09-27T09:25:31;16.40;99.90
18721;DHT22;9489;50.948;3.114;2022-09-27T09:34:13;18.40;99.90
18721;DHT22;9489;50.948;3.114;2022-09-27T09:40:02;18.40;99.90
18721;DHT22;9489;50.948;3.114;2022-09-27T09:42:39;17.90;99.90
18721;DHT22;9489;50.948;3.114;2022-09-27T09:45:40;18.10;99.90
18721;DHT22;9489;50.948;3.114;2022-09-27T09:50:47;17.70;99.90
18721;DHT22;9489;50.948;3.114;2022-09-27T09:53:28;17.60;99.90
18721;DHT22;9489;50.948;3.114;2022-09-27T09:56:06;17.00;99.90
18721;DHT22;9489;50.948;3.114;2022-09-27T10:01:20;15.40;99.90
18721;DHT22;9489;50.948;3.114;2022-09-27T10:03:47;14.80;99.90
18721;DHT22;9489;50.948;3.114;2022-09-27T10:06:15;14.70;99.90
18721;DHT22;9489;50.948;3.114;2022-09-27T10:08:41;15.70;99.90
18721;DHT22;9489;50.948;3.114;2022-09-27T10:11:20;16.40;99.90
18721;DHT22;9489;50.948;3.114;2022-09-27T10:13:46;16.50;99.90
18721;DHT22;9489;50.948;3.114;2022-09-27T10:16:14;17.30;99.90
18721;DHT22;9489;50.948;3.114;2022-09-27T10:18:41;17.30;99.90
18721;DHT22;9489;50.948;3.114;2022-09-27T10:21:21;17.10;99.90
18721;DHT22;9489;50.948;3.114;2022-09-27T10:24:11;16.60;99.90
18721;DHT22;9489;50.948;3.114;2022-09-27T10:26:39;16.50;99.90
18721;DHT22;9489;50.948;3.114;2022-09-27T10:31:45;18.90;99.90
18721;DHT22;9489;50.948;3.114;2022-09-27T10:34:34;20.10;99.90
18721;DHT22;9489;50.948;3.114;2022-09-27T10:37:22;20.60;99.90
18721;DHT22;9489;50.948;3.114;2022-09-27T10:39:49;20.80;99.90
18721;DHT22;9489;50.948;3.114;2022-09-27T10:42:33;21.30;99.90
18721;DHT22;9489;50.948;3.114;2022-09-27T10:47:44;22.00;99.90
18721;DHT22;9489;50.948;3.114;2022-09-27T10:50:19;21.00;99.90
18721;DHT22;9489;50.948;3.114;2022-09-27T10:53:00;20.00;99.90
18721;DHT22;9489;50.948;3.114;2022-09-27T10:55:30;19.40;99.90
18721;DHT22;9489;50.948;3.114;2022-09-27T10:57:57;18.70;99.90
18721;DHT22;9489;50.948;3.114;2022-09-27T11:00:33;17.70;99.90
18721;DHT22;9489;50.948;3.114;2022-09-27T11:03:06;17.10;99.90
18721;DHT22;9489;50.948;3.114;2022-09-27T11:05:38;16.50;99.90
18721;DHT22;9489;50.948;3.114;2022-09-27T11:08:22;16.10;99.90
18721;DHT22;9489;50.948;3.114;2022-09-27T11:13:40;15.20;99.90
18721;DHT22;9489;50.948;3.114;2022-09-27T11:19:04;15.10;99.90
18721;DHT22;9489;50.948;3.114;2022-09-27T11:30:23;20.70;99.90
18721;DHT22;9489;50.948;3.114;2022-09-27T11:36:11;21.60;99.90
18721;DHT22;9489;50.948;3.114;2022-09-27T11:44:16;20.70;99.90
18721;DHT22;9489;50.948;3.114;2022-09-27T11:47:15;20.30;99.90
18721;DHT22;9489;50.948;3.114;2022-09-27T12:03:11;16.50;99.90
18721;DHT22;9489;50.948;3.114;2022-09-27T12:06:11;16.40;99.90
18721;DHT22;9489;50.948;3.114;2022-09-27T12:16:51;16.10;99.90
18721;DHT22;9489;50.948;3.114;2022-09-27T12:19:24;16.60;99.90
18721;DHT22;9489;50.948;3.114;2022-09-27T12:21:53;18.10;99.90
18721;DHT22;9489;50.948;3.114;2022-09-27T12:24:21;19.50;99.90
18721;DHT22;9489;50.948;3.114;2022-09-27T12:26:50;19.70;99.90
18721;DHT22;9489;50.948;3.114;2022-09-27T12:29:22;19.30;99.90
18721;DHT22;9489;50.948;3.114;2022-09-27T12:37:03;18.40;99.90
18721;DHT22;9489;50.948;3.114;2022-09-27T12:39:53;18.70;99.90
18721;DHT22;9489;50.948;3.114;2022-09-27T12:42:31;19.40;99.90
18721;DHT22;9489;50.948;3.114;2022-09-27T12:44:57;20.70;99.90
18721;DHT22;9489;50.948;3.114;2022-09-27T12:50:27;21.30;99.90
18721;DHT22;9489;50.948;3.114;2022-09-27T12:53:00;20.00;99.90
18721;DHT22;9489;50.948;3.114;2022-09-27T13:08:57;16.30;99.90
18721;DHT22;9489;50.948;3.114;2022-09-27T13:14:17;15.80;99.90
18721;DHT22;9489;50.948;3.114;2022-09-27T13:16:44;17.30;99.90
18721;DHT22;9489;50.948;3.114;2022-09-27T13:19:37;18.90;99.90
18721;DHT22;9489;50.948;3.114;2022-09-27T13:22:35;20.30;99.90
18721;DHT22;9489;50.948;3.114;2022-09-27T13:25:01;21.20;99.90
18721;DHT22;9489;50.948;3.114;2022-09-27T13:32:36;21.30;99.90
18721;DHT22;9489;50.948;3.114;2022-09-27T13:37:54;18.50;99.90
18721;DHT22;9489;50.948;3.114;2022-09-27T13:40:36;17.40;99.90
18721;DHT22;9489;50.948;3.114;2022-09-27T13:45:57;15.90;99.90
18721;DHT22;9489;50.948;3.114;2022-09-27T13:53:58;16.30;99.90
18721;DHT22;9489;50.948;3.114;2022-09-27T13:59:04;17.20;99.90
18721;DHT22;9489;50.948;3.114;2022-09-27T14:01:35;17.50;99.90
18721;DHT22;9489;50.948;3.114;2022-09-27T14:06:50;18.30;99.90
18721;DHT22;9489;50.948;3.114;2022-09-27T14:09:21;19.10;99.90
18721;DHT22;9489;50.948;3.114;2022-09-27T14:11:52;19.70;99.90
18721;DHT22;9489;50.948;3.114;2022-09-27T14:14:23;20.30;99.90
18721;DHT22;9489;50.948;3.114;2022-09-27T14:16:49;20.40;99.90
18721;DHT22;9489;50.948;3.114;2022-09-27T14:19:20;20.50;99.90
18721;DHT22;9489;50.948;3.114;2022-09-27T14:21:47;19.90;99.90
18721;DHT22;9489;50.948;3.114;2022-09-27T14:24:32;18.80;99.90
18721;DHT22;9489;50.948;3.114;2022-09-27T14:29:57;18.30;99.90
18721;DHT22;9489;50.948;3.114;2022-09-27T14:32:31;18.20;99.90
18721;DHT22;9489;50.948;3.114;2022-09-27T14:35:17;18.60;99.90
18721;DHT22;9489;50.948;3.114;2022-09-27T14:38:18;19.60;99.90
18721;DHT22;9489;50.948;3.114;2022-09-27T14:40:57;20.60;99.90
18721;DHT22;9489;50.948;3.114;2022-09-27T14:43:23;21.50;99.90
18721;DHT22;9489;50.948;3.114;2022-09-27T14:46:22;22.00;99.90
18721;DHT22;9489;50.948;3.114;2022-09-27T14:48:38;21.70;99.90
18721;DHT22;9489;50.948;3.114;2022-09-27T14:53:44;20.70;99.90
18721;DHT22;9489;50.948;3.114;2022-09-27T14:56:18;19.40;99.90
18721;DHT22;9489;50.948;3.114;2022-09-27T14:58:48;18.80;99.90
18721;DHT22;9489;50.948;3.114;2022-09-27T15:01:17;18.40;99.90
18721;DHT22;9489;50.948;3.114;2022-09-27T15:03:45;17.80;99.90
18721;DHT22;9489;50.948;3.114;2022-09-27T15:06:16;17.60;99.90
18721;DHT22;9489;50.948;3.114;2022-09-27T15:08:42;17.50;99.90
18721;DHT22;9489;50.948;3.114;2022-09-27T15:11:12;17.40;99.90
18721;DHT22;9489;50.948;3.114;2022-09-27T15:13:39;17.30;99.90
18721;DHT22;9489;50.948;3.114;2022-09-27T15:16:14;17.00;99.90
18721;DHT22;9489;50.948;3.114;2022-09-27T15:18:45;16.80;99.90
18721;DHT22;9489;50.948;3.114;2022-09-27T15:21:26;16.80;99.90
18721;DHT22;9489;50.948;3.114;2022-09-27T15:23:52;16.70;99.90
18721;DHT22;9489;50.948;3.114;2022-09-27T15:26:33;16.60;99.90
18721;DHT22;9489;50.948;3.114;2022-09-27T15:29:00;16.70;99.90
18721;DHT22;9489;50.948;3.114;2022-09-27T15:31:34;16.50;99.90
18721;DHT22;9489;50.948;3.114;2022-09-27T15:34:00;16.40;99.90
18721;DHT22;9489;50.948;3.114;2022-09-27T15:39:40;16.10;99.90
18721;DHT22;9489;50.948;3.114;2022-09-27T15:42:11;16.00;99.90
18721;DHT22;9489;50.948;3.114;2022-09-27T15:52:45;15.40;99.90
18721;DHT22;9489;50.948;3.114;2022-09-27T15:55:16;15.20;99.90
18721;DHT22;9489;50.948;3.114;2022-09-27T15:57:45;15.00;99.90
18721;DHT22;9489;50.948;3.114;2022-09-27T16:00:16;14.80;99.90
18721;DHT22;9489;50.948;3.114;2022-09-27T16:02:42;14.60;99.90
18721;DHT22;9489;50.948;3.114;2022-09-27T16:05:08;14.30;99.90
18721;DHT22;9489;50.948;3.114;2022-09-27T16:07:34;14.10;99.90
18721;DHT22;9489;50.948;3.114;2022-09-27T16:09:59;13.90;99.90
18721;DHT22;9489;50.948;3.114;2022-09-27T16:12:25;13.70;99.90
18721;DHT22;9489;50.948;3.114;2022-09-27T16:14:55;13.60;99.90
18721;DHT22;9489;50.948;3.114;2022-09-27T16:17:20;13.60;99.90
18721;DHT22;9489;50.948;3.114;2022-09-27T16:19:46;13.60;99.90
18721;DHT22;9489;50.948;3.114;2022-09-27T16:22:12;13.60;99.90
18721;DHT22;9489;50.948;3.114;2022-09-27T16:24:38;13.60;99.90
18721;DHT22;9489;50.948;3.114;2022-09-27T16:27:03;13.60;99.90
18721;DHT22;9489;50.948;3.114;2022-09-27T16:29:29;13.50;99.90
18721;DHT22;9489;50.948;3.114;2022-09-27T16:31:55;13.50;99.90
18721;DHT22;9489;50.948;3.114;2022-09-27T16:34:21;13.50;99.90
18721;DHT22;9489;50.948;3.114;2022-09-27T16:36:48;13.50;99.90
18721;DHT22;9489;50.948;3.114;2022-09-27T16:39:14;13.40;99.90
18721;DHT22;9489;50.948;3.114;2022-09-27T16:41:40;13.40;99.90
18721;DHT22;9489;50.948;3.114;2022-09-27T16:44:13;13.40;99.90
18721;DHT22;9489;50.948;3.114;2022-09-27T16:46:42;13.50;99.90
18721;DHT22;9489;50.948;3.114;2022-09-27T16:49:10;13.50;99.90
18721;DHT22;9489;50.948;3.114;2022-09-27T16:51:56;13.40;99.90
18721;DHT22;9489;50.948;3.114;2022-09-27T16:54:25;13.40;99.90
18721;DHT22;9489;50.948;3.114;2022-09-27T16:56:54;13.30;99.90
18721;DHT22;9489;50.948;3.114;2022-09-27T16:59:20;13.30;99.90
18721;DHT22;9489;50.948;3.114;2022-09-27T17:01:46;13.20;99.90
18721;DHT22;9489;50.948;3.114;2022-09-27T17:04:12;13.10;99.90
18721;DHT22;9489;50.948;3.114;2022-09-27T17:06:38;13.10;99.90
18721;DHT22;9489;50.948;3.114;2022-09-27T17:09:04;13.10;99.90
18721;DHT22;9489;50.948;3.114;2022-09-27T17:11:31;13.00;99.90
18721;DHT22;9489;50.948;3.114;2022-09-27T17:13:57;13.00;99.90
18721;DHT22;9489;50.948;3.114;2022-09-27T17:16:24;13.00;99.90
18721;DHT22;9489;50.948;3.114;2022-09-27T17:18:50;13.00;99.90
18721;DHT22;9489;50.948;3.114;2022-09-27T17:21:16;12.90;99.90
18721;DHT22;9489;50.948;3.114;2022-09-27T17:23:42;12.90;99.90
18721;DHT22;9489;50.948;3.114;2022-09-27T17:26:16;12.80;99.90
18721;DHT22;9489;50.948;3.114;2022-09-27T17:28:42;12.70;99.90
18721;DHT22;9489;50.948;3.114;2022-09-27T17:31:10;12.60;99.90
18721;DHT22;9489;50.948;3.114;2022-09-27T17:33:39;12.60;99.90
18721;DHT22;9489;50.948;3.114;2022-09-27T17:36:14;12.50;99.90
18721;DHT22;9489;50.948;3.114;2022-09-27T17:38:41;12.40;99.90
18721;DHT22;9489;50.948;3.114;2022-09-27T17:41:10;12.40;99.90
18721;DHT22;9489;50.948;3.114;2022-09-27T17:43:38;12.30;99.90
18721;DHT22;9489;50.948;3.114;2022-09-27T17:46:06;12.30;99.90
18721;DHT22;9489;50.948;3.114;2022-09-27T17:48:32;12.20;99.90
18721;DHT22;9489;50.948;3.114;2022-09-27T17:51:16;12.20;99.90
18721;DHT22;9489;50.948;3.114;2022-09-27T17:53:42;12.20;99.90
18721;DHT22;9489;50.948;3.114;2022-09-27T17:56:09;12.10;99.90
18721;DHT22;9489;50.948;3.114;2022-09-27T17:58:34;12.10;99.90
18721;DHT22;9489;50.948;3.114;2022-09-27T18:01:04;12.10;99.90
18721;DHT22;9489;50.948;3.114;2022-09-27T18:03:32;12.10;99.90
18721;DHT22;9489;50.948;3.114;2022-09-27T18:05:57;12.10;99.90
18721;DHT22;9489;50.948;3.114;2022-09-27T18:08:25;12.00;99.90
18721;DHT22;9489;50.948;3.114;2022-09-27T18:10:53;12.00;99.90
18721;DHT22;9489;50.948;3.114;2022-09-27T18:13:19;12.00;99.90
18721;DHT22;9489;50.948;3.114;2022-09-27T18:15:54;11.90;99.90
18721;DHT22;9489;50.948;3.114;2022-09-27T18:18:23;11.90;99.90
18721;DHT22;9489;50.948;3.114;2022-09-27T18:20:49;11.90;99.90
18721;DHT22;9489;50.948;3.114;2022-09-27T18:23:14;11.90;99.90
18721;DHT22;9489;50.948;3.114;2022-09-27T18:25:40;11.80;99.90
18721;DHT22;9489;50.948;3.114;2022-09-27T18:28:05;11.80;99.90
18721;DHT22;9489;50.948;3.114;2022-09-27T18:30:32;11.80;99.90
18721;DHT22;9489;50.948;3.114;2022-09-27T18:32:58;11.80;99.90
18721;DHT22;9489;50.948;3.114;2022-09-27T18:35:23;11.70;99.90
18721;DHT22;9489;50.948;3.114;2022-09-27T18:37:52;11.70;99.90
18721;DHT22;9489;50.948;3.114;2022-09-27T18:40:17;11.70;99.90
18721;DHT22;9489;50.948;3.114;2022-09-27T18:42:43;11.80;99.90
18721;DHT22;9489;50.948;3.114;2022-09-27T18:45:08;11.70;99.90
18721;DHT22;9489;50.948;3.114;2022-09-27T18:47:34;11.80;99.90
18721;DHT22;9489;50.948;3.114;2022-09-27T18:50:00;11.80;99.90
18721;DHT22;9489;50.948;3.114;2022-09-27T18:52:25;11.90;99.90
18721;DHT22;9489;50.948;3.114;2022-09-27T18:54:51;11.90;99.90
18721;DHT22;9489;50.948;3.114;2022-09-27T18:57:16;11.90;99.90
18721;DHT22;9489;50.948;3.114;2022-09-27T18:59:42;11.90;99.90
18721;DHT22;9489;50.948;3.114;2022-09-27T19:02:08;11.90;99.90
18721;DHT22;9489;50.948;3.114;2022-09-27T19:04:34;11.90;99.90
18721;DHT22;9489;50.948;3.114;2022-09-27T19:07:00;12.00;99.90
18721;DHT22;9489;50.948;3.114;2022-09-27T19:09:26;11.90;99.90
18721;DHT22;9489;50.948;3.114;2022-09-27T19:11:51;12.00;99.90
18721;DHT22;9489;50.948;3.114;2022-09-27T19:14:19;11.90;99.90
18721;DHT22;9489;50.948;3.114;2022-09-27T19:16:45;11.90;99.90
18721;DHT22;9489;50.948;3.114;2022-09-27T19:19:15;11.90;99.90